Stations météo

réclame
Mon MeteoGroup
Brocken, Allemagne (10453): Température de l'air & dewpoint: 15.01.2019 17:00:00 - 21.01.2019 17:00:00 (CET)Brocken, Allemagne (10453): Température de l'air 5cm: 15.01.2019 17:00:00 - 21.01.2019 17:00:00 (CET)Brocken, Allemagne (10453): Vitesse du vent & gusts: 15.01.2019 17:00:00 - 21.01.2019 17:00:00 (CET)Brocken, Allemagne (10453): Direction du vent: 15.01.2019 17:00:00 - 21.01.2019 17:00:00 (CET)Brocken, Allemagne (10453): visibility: 15.01.2019 17:00:00 - 21.01.2019 17:00:00 (CET)Brocken, Allemagne (10453): Ensoleillement: 15.01.2019 17:00:00 - 21.01.2019 17:00:00 (CET)
Date & Time tt [°C] td [°C] tt 5cm [°C] ff [km/h] ff [knt] fx [km/h] fx [knt] dd vv [km] sd [min]
21.01.2019 17:00:00 -6,1 -14,4 - 23 12 25 13 WNW 80 -
21.01.2019 16:00:00 -4,5 -14,4 - 19 10 21 11 WNW 80 -
21.01.2019 15:00:00 -3,6 -10,0 - 16 9 22 12 WNW 80 -
21.01.2019 14:00:00 -4,1 -9,5 - 18 10 22 12 WNW 80 -
21.01.2019 13:00:00 -2,8 -8,5 - 0 0 12 6 N 80 -
21.01.2019 12:00:00 -3,1 -8,4 - 8 4 10 5 S 80 -
21.01.2019 11:00:00 -3,6 -10,0 - 8 5 11 6 ESE 80 -
21.01.2019 10:00:00 -5,1 -11,0 - 7 4 9 5 E 80 -
21.01.2019 09:00:00 -7,7 -10,7 - 4 2 11 6 S 80 -
21.01.2019 08:00:00 -8,6 -11,6 - 8 5 14 8 S 80 -
21.01.2019 07:00:00 -8,2 -11,6 - 15 8 18 10 SSE 80 -
21.01.2019 06:00:00 -8,2 -13,1 - 13 7 21 11 SSE 80 -
21.01.2019 05:00:00 -7,9 -14,0 - 16 9 23 12 SSE 80 -
21.01.2019 04:00:00 -8,1 -14,1 - 22 12 26 14 SSE 80 -
21.01.2019 03:00:00 -7,9 -13,5 - 24 13 27 14 SSE 80 -
21.01.2019 02:00:00 -8,0 -15,3 - 24 13 26 14 SSE 80 -
21.01.2019 01:00:00 -7,3 -16,9 - 23 12 28 15 ESE 80 -
21.01.2019 00:00:00 -7,7 -15,6 - 24 13 29 16 ESE 80 -
20.01.2019 23:00:00 -7,5 -14,8 - 25 14 28 15 ESE 80 -
20.01.2019 22:00:00 -7,5 -16,1 - 27 15 31 17 SE 80 -
20.01.2019 21:00:00 -7,8 -16,6 - 29 16 32 17 ESE 80 -
20.01.2019 20:00:00 -8,4 -13,3 - 26 14 36 19 ESE 80 -
20.01.2019 19:00:00 -8,7 -13,6 - 27 14 29 16 E 80 -
20.01.2019 18:00:00 -8,6 -13,3 - 24 13 29 15 E 80 -
20.01.2019 17:00:00 -8,2 -12,6 - 23 12 27 15 E 80 -
20.01.2019 16:00:00 -7,2 -13,2 - 20 11 26 14 E 82 -
20.01.2019 15:00:00 -6,5 -11,1 - 19 10 26 14 E 82 -
20.01.2019 14:00:00 -6,6 -11,8 - 23 12 29 16 E 82 -
20.01.2019 13:00:00 -6,5 -10,8 - 18 10 21 12 ESE 82 -
20.01.2019 12:00:00 -6,5 -12,2 - 16 9 24 13 ESE 82 -
20.01.2019 11:00:00 -7,0 -12,3 - 21 12 27 15 E 82 -
20.01.2019 10:00:00 -7,8 -13,7 - 24 13 27 14 E 82 -
20.01.2019 09:00:00 -8,5 -14,2 - 23 12 24 13 E 82 -
20.01.2019 08:00:00 -9,3 -14,0 - 18 10 18 10 ESE 82 -
20.01.2019 07:00:00 -9,3 -13,8 - 16 9 19 10 ESE 80 -
20.01.2019 06:00:00 -9,4 -13,8 - 19 10 23 12 SE 80 -
20.01.2019 05:00:00 -9,6 -13,9 - 23 12 25 14 SE 70 -
20.01.2019 04:00:00 -9,8 -14,1 - 24 13 26 14 SSE 60 -
20.01.2019 03:00:00 -10,1 -14,0 - 19 10 22 12 S 60 -
20.01.2019 02:00:00 -10,1 -13,8 - 19 10 26 14 S 60 -
20.01.2019 01:00:00 -10,0 -13,4 - 22 12 24 13 S 70 -
20.01.2019 00:00:00 -9,9 -13,1 - 23 12 26 14 S 80 -
19.01.2019 23:00:00 -10,1 -13,3 - 22 12 27 15 S 82 -
19.01.2019 22:00:00 -9,4 -11,8 - 25 14 29 16 S 82 -
19.01.2019 21:00:00 -8,8 -9,7 - 22 12 31 17 SSE 60 -
19.01.2019 20:00:00 -8,3 -9,6 - 27 14 32 17 SE 82 -
19.01.2019 19:00:00 -8,0 -9,1 - 19 10 22 12 SSE 82 -
19.01.2019 18:00:00 -7,4 -8,4 - 17 9 20 11 S 82 -
19.01.2019 17:00:00 -6,6 -7,4 - 15 8 24 13 S 82 -
19.01.2019 16:00:00 -5,7 -6,6 - 19 11 25 14 S 82 -
19.01.2019 15:00:00 -5,1 -6,2 - 22 12 27 15 S 82 -
19.01.2019 14:00:00 -4,5 -5,1 - 18 10 24 13 S 82 -
19.01.2019 13:00:00 -5,5 -6,3 - 19 10 24 13 S 82 -
19.01.2019 12:00:00 -5,3 -6,0 - 19 10 26 14 S 82 -
19.01.2019 11:00:00 -6,1 -6,8 - 22 12 27 15 S 82 -
19.01.2019 10:00:00 -6,8 -7,4 - 20 11 23 12 S 12 -
19.01.2019 09:00:00 -7,2 -7,9 - 19 10 24 13 S 5 -
19.01.2019 08:00:00 -7,6 -8,3 - 21 11 25 14 S 50 -
19.01.2019 07:00:00 -7,6 -8,3 - 10 6 14 8 S 80 -
19.01.2019 06:00:00 -7,7 -8,6 - 13 7 16 8 S 70 -
19.01.2019 05:00:00 -7,8 -8,6 - 10 5 12 7 S 70 -
19.01.2019 04:00:00 -7,7 -8,6 - 9 5 10 6 SSW 70 -
19.01.2019 03:00:00 -7,3 -8,2 - 0 0 8 5 N 70 -
19.01.2019 02:00:00 -6,5 -7,2 - 9 5 14 8 NNW 70 -
19.01.2019 01:00:00 -6,4 -7,0 - 13 7 18 10 NW 70 -
19.01.2019 00:00:00 -6,4 -7,0 - 14 8 23 12 NW 70 -
18.01.2019 23:00:00 -6,3 -7,1 - 20 11 26 14 WNW 80 -
18.01.2019 22:00:00 -6,9 -7,6 - 22 12 39 21 W 80 -
18.01.2019 21:00:00 -7,4 -8,4 - 34 19 41 22 W 80 -
18.01.2019 20:00:00 -7,1 -8,1 - 31 17 37 20 W 80 -
18.01.2019 19:00:00 -7,1 -8,0 - 29 16 39 21 W 80 -
18.01.2019 18:00:00 -7,1 -7,9 - 33 18 38 20 W 80 -
18.01.2019 17:00:00 -6,9 -7,6 - 23 12 39 21 W 30 -
18.01.2019 16:00:00 -6,6 -7,4 - 32 17 41 22 W 40 -
18.01.2019 15:00:00 -5,9 -6,8 - 33 18 42 23 W 50 -
18.01.2019 14:00:00 -5,9 -6,9 - 30 16 46 25 W 70 -
18.01.2019 13:00:00 -6,4 -7,2 - 37 20 45 25 W 25 -
18.01.2019 12:00:00 -7,3 -8,5 - 36 19 42 23 WNW 82 -
18.01.2019 11:00:00 -8,5 -10,6 - 36 20 45 24 NNW 82 -
18.01.2019 10:00:00 -8,7 -10,0 - 39 21 54 29 NW 82 -
18.01.2019 09:00:00 -8,9 -9,9 - 40 22 51 28 NW 70 -
18.01.2019 08:00:00 -8,7 -9,5 - 40 22 60 33 NW 0,1 -
18.01.2019 07:00:00 -8,6 -9,4 - 49 27 69 37 NW - -
18.01.2019 06:00:00 -8,4 -9,1 - 53 29 79 43 NW - -
18.01.2019 05:00:00 -8,0 -8,8 - 53 29 77 42 NW - -
18.01.2019 04:00:00 -6,9 -7,5 - 50 27 72 39 NNW - -
18.01.2019 03:00:00 -6,6 -7,2 - 51 27 74 40 NW 0,1 -
18.01.2019 02:00:00 -6,4 -7,0 - 50 27 85 46 WNW 0,1 -
18.01.2019 01:00:00 -6,1 -6,7 - 61 33 84 45 WNW 0,1 -
18.01.2019 00:00:00 -5,8 -6,4 - 60 32 93 50 W - -
17.01.2019 23:00:00 -5,7 -6,3 - 59 32 93 50 W - -
17.01.2019 22:00:00 -6,0 -6,6 - 66 36 91 49 W 0,1 -
17.01.2019 21:00:00 -5,5 -6,1 - 56 31 83 45 W 0,1 -
17.01.2019 20:00:00 -4,9 -5,5 - 74 40 93 50 W 0,1 -
17.01.2019 19:00:00 -4,2 -4,7 - 64 35 83 45 W - -
17.01.2019 18:00:00 -4,0 -4,4 - 59 32 84 45 W - -
17.01.2019 17:00:00 -3,3 -3,7 - 57 31 106 58 W - -
17.01.2019 16:00:00 -2,5 -2,7 - 69 37 87 47 SW - -
17.01.2019 15:00:00 -2,8 -3,1 - 68 37 82 44 SW - -
17.01.2019 14:00:00 -2,8 -3,1 - 61 33 86 46 SW - -
17.01.2019 13:00:00 -2,9 -3,2 - 71 38 95 52 SW - -
17.01.2019 12:00:00 -3,0 -3,3 - 72 39 93 50 WSW - -
17.01.2019 11:00:00 -2,9 -3,2 -0,7 63 34 80 43 WSW - -
17.01.2019 10:00:00 -2,7 -3,0 -0,7 64 34 82 44 WSW - -
17.01.2019 09:00:00 -2,8 -3,0 -0,7 61 33 90 49 WSW - -
17.01.2019 08:00:00 -2,9 -3,2 -0,7 63 34 103 56 WSW - -
17.01.2019 07:00:00 -2,7 -3,0 -0,7 74 40 101 54 WSW - -
17.01.2019 06:00:00 -2,6 -2,8 -0,7 71 39 101 55 WSW - -
17.01.2019 05:00:00 -2,7 -3,0 -0,7 79 43 106 57 WSW - -
17.01.2019 04:00:00 -3,0 -3,3 -0,7 87 47 108 58 WSW - -
17.01.2019 03:00:00 -3,1 -3,4 -0,7 74 40 94 51 SW - -
17.01.2019 02:00:00 -3,4 -3,7 -0,7 76 41 116 62 WSW - -
17.01.2019 01:00:00 -3,7 -4,2 -0,7 92 50 113 61 SW - -
17.01.2019 00:00:00 -3,4 -3,8 -0,7 84 45 100 54 SW - -
16.01.2019 23:00:00 -3,2 -3,5 -0,7 77 42 95 51 SW - -
16.01.2019 22:00:00 -3,2 -3,5 -0,8 69 37 86 47 SW - -
16.01.2019 21:00:00 -3,3 -3,6 -0,8 61 33 79 43 SW - -
16.01.2019 20:00:00 -3,4 -3,6 -0,8 55 30 86 47 SW - -
16.01.2019 19:00:00 -3,6 -4,0 -0,8 66 36 83 45 SW - -
16.01.2019 18:00:00 -3,4 -3,8 -0,8 72 39 87 47 SW - -
16.01.2019 17:00:00 -3,2 -3,5 -0,8 73 40 90 48 SSW - -
16.01.2019 16:00:00 -2,7 -3,0 - 67 36 - - SW - -
16.01.2019 15:00:00 -2,2 -2,4 - 72 39 - - SW - 0
16.01.2019 14:00:00 -1,7 -1,9 - 64 35 79 43 SW - 0
16.01.2019 13:00:00 -1,4 -1,5 - 67 36 82 44 SW - 0
16.01.2019 12:00:00 -1,2 -1,3 - 71 39 84 45 WSW - 0
16.01.2019 11:00:00 -1,2 -1,3 - 63 34 84 45 WSW - 0
16.01.2019 10:00:00 -1,2 -1,4 - 70 38 95 52 WSW - 0
16.01.2019 09:00:00 -1,3 -1,5 - 68 37 90 49 WSW - 0
16.01.2019 08:00:00 -1,2 -1,3 - 61 33 90 49 WSW - 0
16.01.2019 07:00:00 -1,2 -1,4 - 66 35 100 54 WSW - 0
16.01.2019 06:00:00 -1,2 -1,3 - 74 40 101 55 W - 0
16.01.2019 05:00:00 -1,3 -1,4 - 66 36 102 55 WSW - 0
16.01.2019 04:00:00 -1,4 -1,5 - 73 39 94 51 WSW - 0
16.01.2019 03:00:00 -1,2 -1,3 - 68 37 101 54 W - 0
16.01.2019 02:00:00 -0,9 -1,0 - 80 43 106 57 W - 0
16.01.2019 01:00:00 -0,9 -1,0 - 74 40 100 54 W - 0
16.01.2019 00:00:00 -0,9 -0,9 - 75 41 98 53 W - 0
15.01.2019 23:00:00 -0,9 -0,9 - 77 41 103 55 W - 0
15.01.2019 22:00:00 -1,1 -1,1 - 77 42 101 55 W - 0
15.01.2019 21:00:00 -1,1 -1,2 - 75 41 99 54 W - 0
15.01.2019 20:00:00 -1,2 -1,2 - 77 41 105 57 W - 0
15.01.2019 19:00:00 -1,3 -1,4 - 82 44 112 61 W - 0
15.01.2019 18:00:00 -1,4 -1,5 - 84 45 106 57 W - 0
15.01.2019 17:00:00 -1,6 -1,7 - 79 43 109 59 W - 0

tt = Température de l'air
td = dewpoint
tt 5cm = Température de l'air 5cm
ff = Vitesse du vent
fx = gusts
dd = Direction du vent
vv = visibility
sd = Ensoleillement

stations d'obs. à proximité